首页
METAR-TAF:

METAR-TAF

机场 :

烏法, 俄罗斯

纬度: 54-43-48N, 经度: 055-55-48E, 海拔: 137米

当前天气观测

该预报发布于14分钟前的02:30 UTC
风速10节,风向西南
温度 17°C
湿度 72%
气压 1006 hPa
能见度10公里或以上
1500米以下无云,无积雨云

METAR: UWUU 010230Z 22005MPS CAVOK 17/12 Q1006 R14R/0///60 NOSIG

时间: 07:44 (02:44 UTC)

预报

该预报发布于45分钟前的01:59 UTC
预报有效从01日的 03点(UTC)到 02日的 03点(UTC)
风速12节,风向西转西南,有时为25节阵风
能见度10公里或以上
散云层高于4000英尺
短暂存在
从 01日的 03点(UTC)到 01日的 06点(UTC)
风速14节,风向南转西南
短暂存在
从 01日的 06点(UTC)到 01日的 18点(UTC)
风速16节,风向西,有时为29节阵风
能見度: 6000
多云层高于2000英尺, 积雨云.
雷暴, 小雨
短暂存在
从 01日的 18点(UTC)到 02日的 03点(UTC)
风速2节,风向多变
能見度: 0300
层高于200英尺

TAF: UWUU 010159Z 0103/0203 24006G13MPS 9999 SCT040 TX24/0110Z TN10/0201Z TEMPO 0103/0106 21007MPS TEMPO 0106/0118 28008G15MPS 6000 -TSRA BKN020CB TEMPO 0118/0203 VRB01MPS 0300 FG VV002

超过4000个机场的气象观测和天气预报(METAR&TAF报告)。

可查询的气象台以黄色和红色小点在地图上表示。

将鼠标移到小点上方,可查看气象台名称。

然后点击查看天气观测和预报。

如需切换地图:点击带黑十字的绿色按钮放大地图;点击带横线的绿色按钮缩小地图;或者点击绿色箭头查看邻近地区的地图。


METAR-TAF: